createdAt,value
2017-09-24T00:00:59.918Z,15.54
2017-09-24T00:01:59.937Z,15.68
2017-09-24T00:02:59.953Z,15.75
2017-09-24T00:03:59.975Z,15.84
2017-09-24T00:04:59.999Z,15.91
2017-09-24T00:06:00.016Z,15.88
2017-09-24T00:07:00.039Z,15.82
2017-09-24T00:08:00.064Z,15.84
2017-09-24T00:09:00.083Z,15.92
2017-09-24T00:10:00.104Z,15.86
2017-09-24T00:11:00.124Z,15.80
2017-09-24T00:12:00.150Z,15.86
2017-09-24T00:13:00.164Z,15.88
2017-09-24T00:14:00.182Z,15.83
2017-09-24T00:15:00.199Z,15.77
2017-09-24T00:16:00.224Z,15.83
2017-09-24T00:17:00.239Z,15.77
2017-09-24T00:18:00.264Z,15.82
2017-09-24T00:19:00.281Z,15.82
2017-09-24T00:20:00.298Z,15.88
2017-09-24T00:21:00.343Z,15.91
2017-09-24T00:22:00.344Z,15.82
2017-09-24T00:23:00.368Z,15.86
2017-09-24T00:24:00.380Z,15.79
2017-09-24T00:25:00.407Z,15.70
2017-09-24T00:26:00.427Z,15.73
2017-09-24T00:27:00.447Z,15.68
2017-09-24T00:28:00.470Z,15.77
2017-09-24T00:29:00.490Z,15.94
2017-09-24T00:30:00.507Z,15.92
2017-09-24T00:31:00.533Z,15.92
2017-09-24T00:32:00.550Z,15.92
2017-09-24T00:33:00.573Z,15.97
2017-09-24T00:34:00.590Z,16.12
2017-09-24T00:35:00.620Z,16.10
2017-09-24T00:36:00.626Z,16.12
2017-09-24T00:37:00.649Z,16.33
2017-09-24T00:38:00.670Z,16.33
2017-09-24T00:39:00.689Z,16.17
2017-09-24T00:40:00.711Z,16.10
2017-09-24T00:41:00.732Z,16.02
2017-09-24T00:42:00.748Z,16.09
2017-09-24T00:43:00.771Z,15.97
2017-09-24T00:44:00.795Z,15.79
2017-09-24T00:45:00.817Z,15.77
2017-09-24T00:46:00.832Z,15.82
2017-09-24T00:47:00.853Z,15.65
2017-09-24T00:48:00.877Z,15.73
2017-09-24T00:49:00.892Z,15.84
2017-09-24T00:50:00.913Z,15.94
2017-09-24T00:51:00.942Z,16.00
2017-09-24T00:52:00.955Z,16.00
2017-09-24T00:53:00.975Z,16.16
2017-09-24T00:54:01.001Z,16.08
2017-09-24T00:55:01.028Z,16.01
2017-09-24T00:56:01.035Z,15.90
2017-09-24T00:57:01.063Z,15.83
2017-09-24T00:58:01.078Z,15.83
2017-09-24T00:59:01.104Z,15.73
2017-09-24T01:00:01.129Z,15.77
2017-09-24T01:01:01.140Z,15.72
2017-09-24T01:02:01.168Z,15.72
2017-09-24T01:03:01.191Z,15.67
2017-09-24T01:04:01.208Z,15.55
2017-09-24T01:05:01.232Z,15.47
2017-09-24T01:06:01.239Z,15.46
2017-09-24T01:07:01.265Z,15.52
2017-09-24T01:08:01.284Z,15.55
2017-09-24T01:09:01.299Z,15.65
2017-09-24T01:10:01.329Z,15.73
2017-09-24T01:11:01.350Z,15.94
2017-09-24T01:12:01.361Z,16.00
2017-09-24T01:13:01.383Z,15.92
2017-09-24T01:14:01.406Z,15.76
2017-09-24T01:15:01.424Z,15.67
2017-09-24T01:16:01.442Z,15.65
2017-09-24T01:17:01.466Z,15.57
2017-09-24T01:18:01.485Z,15.65
2017-09-24T01:19:01.504Z,15.82
2017-09-24T01:20:01.530Z,15.77
2017-09-24T01:21:01.553Z,15.77
2017-09-24T01:22:01.564Z,15.88
2017-09-24T01:23:01.589Z,15.90
2017-09-24T01:24:01.614Z,15.94
2017-09-24T01:25:01.627Z,15.95
2017-09-24T01:26:01.644Z,15.84
2017-09-24T01:27:01.674Z,15.76
2017-09-24T01:28:01.687Z,15.82
2017-09-24T01:29:01.704Z,15.82
2017-09-24T01:30:01.727Z,15.82
2017-09-24T01:31:01.748Z,15.67
2017-09-24T01:32:01.769Z,15.64
2017-09-24T01:33:01.787Z,15.52
2017-09-24T01:34:01.810Z,15.51
2017-09-24T01:35:01.838Z,15.58
2017-09-24T01:36:01.851Z,15.59
2017-09-24T01:37:01.869Z,15.64
2017-09-24T01:38:01.889Z,15.65
2017-09-24T01:39:01.910Z,15.44
2017-09-24T01:40:01.935Z,15.44
2017-09-24T01:41:01.951Z,15.43
2017-09-24T01:42:01.981Z,15.27
2017-09-24T01:43:02.009Z,15.43
2017-09-24T01:44:02.018Z,15.29
2017-09-24T01:45:02.032Z,15.59
2017-09-24T01:46:02.051Z,15.47
2017-09-24T01:47:02.073Z,15.49
2017-09-24T01:48:02.091Z,15.59
2017-09-24T01:49:02.116Z,15.57
2017-09-24T01:50:02.131Z,15.70
2017-09-24T01:51:02.155Z,15.82
2017-09-24T01:52:02.171Z,15.82
2017-09-24T01:53:02.191Z,15.82
2017-09-24T01:54:02.211Z,15.90
2017-09-24T01:55:02.235Z,15.80
2017-09-24T01:56:02.275Z,15.82
2017-09-24T01:57:02.275Z,15.84
2017-09-24T01:58:02.294Z,15.77
2017-09-24T01:59:02.320Z,15.90
2017-09-24T02:00:02.358Z,15.80
2017-09-24T02:01:02.356Z,15.62
2017-09-24T02:02:02.379Z,15.57
2017-09-24T02:03:02.393Z,15.67
2017-09-24T02:04:02.415Z,15.62
2017-09-24T02:05:02.436Z,15.82
2017-09-24T02:06:02.462Z,15.76
2017-09-24T02:07:02.473Z,15.73
2017-09-24T02:08:02.491Z,15.82
2017-09-24T02:09:02.553Z,15.83
2017-09-24T02:10:02.537Z,15.67
2017-09-24T02:11:02.557Z,15.72
2017-09-24T02:12:02.576Z,15.77
2017-09-24T02:13:02.598Z,15.67
2017-09-24T02:14:02.613Z,15.52
2017-09-24T02:15:02.637Z,15.57
2017-09-24T02:16:02.656Z,15.62
2017-09-24T02:17:02.674Z,15.49
2017-09-24T02:18:02.701Z,15.42
2017-09-24T02:19:02.717Z,15.29
2017-09-24T02:20:02.746Z,15.31
2017-09-24T02:21:02.755Z,15.39
2017-09-24T02:22:02.777Z,15.35
2017-09-24T02:23:02.796Z,15.43
2017-09-24T02:24:02.814Z,15.40
2017-09-24T02:25:02.839Z,15.46
2017-09-24T02:26:02.860Z,15.39
2017-09-24T02:27:02.889Z,15.36
2017-09-24T02:28:02.896Z,15.57
2017-09-24T02:29:02.916Z,15.57
2017-09-24T02:30:02.940Z,15.67
2017-09-24T02:31:02.960Z,15.68
2017-09-24T02:32:02.978Z,15.68
2017-09-24T02:33:02.999Z,15.80
2017-09-24T02:34:03.022Z,15.75
2017-09-24T02:35:03.041Z,15.80
2017-09-24T02:36:03.076Z,15.77
2017-09-24T02:37:03.083Z,15.83
2017-09-24T02:38:03.097Z,15.83
2017-09-24T02:39:03.119Z,15.84
2017-09-24T02:40:03.140Z,15.83
2017-09-24T02:41:03.166Z,15.86
2017-09-24T02:42:03.178Z,15.94
2017-09-24T02:43:03.202Z,15.90
2017-09-24T02:44:03.221Z,15.94
2017-09-24T02:45:03.241Z,15.91
2017-09-24T02:46:03.258Z,15.77
2017-09-24T02:47:03.279Z,15.75
2017-09-24T02:48:03.301Z,15.80
2017-09-24T02:49:03.324Z,15.82
2017-09-24T02:50:03.344Z,15.83
2017-09-24T02:51:03.373Z,15.65
2017-09-24T02:52:03.381Z,15.57
2017-09-24T02:53:03.406Z,15.49
2017-09-24T02:54:03.426Z,15.33
2017-09-24T02:55:03.442Z,15.39
2017-09-24T02:56:03.466Z,15.44
2017-09-24T02:57:03.484Z,15.37
2017-09-24T02:58:03.512Z,15.37
2017-09-24T02:59:03.525Z,15.28
2017-09-24T03:00:03.540Z,15.37
2017-09-24T03:01:03.562Z,15.18
2017-09-24T03:02:03.586Z,15.06
2017-09-24T03:03:03.607Z,15.00
2017-09-24T03:04:03.632Z,15.03
2017-09-24T03:05:03.642Z,15.09
2017-09-24T03:06:03.663Z,15.02
2017-09-24T03:07:03.684Z,15.11
2017-09-24T03:08:03.708Z,15.11
2017-09-24T03:09:03.727Z,15.15
2017-09-24T03:10:03.748Z,15.11
2017-09-24T03:11:03.767Z,15.24
2017-09-24T03:12:03.783Z,15.11
2017-09-24T03:13:03.811Z,15.17
2017-09-24T03:14:03.826Z,15.40
2017-09-24T03:15:03.845Z,15.47
2017-09-24T03:16:03.871Z,15.54
2017-09-24T03:17:03.887Z,15.55
2017-09-24T03:18:03.907Z,15.55
2017-09-24T03:19:03.929Z,15.54
2017-09-24T03:20:03.957Z,15.40
2017-09-24T03:21:03.970Z,15.42
2017-09-24T03:22:03.994Z,15.54
2017-09-24T03:23:04.014Z,15.59
2017-09-24T03:24:04.028Z,15.59
2017-09-24T03:25:04.054Z,15.61
2017-09-24T03:26:04.065Z,15.54
2017-09-24T03:27:04.092Z,15.54
2017-09-24T03:28:04.108Z,15.52
2017-09-24T03:29:04.130Z,15.58
2017-09-24T03:30:04.157Z,15.59
2017-09-24T03:31:04.183Z,15.67
2017-09-24T03:32:04.199Z,15.55
2017-09-24T03:33:04.217Z,15.58
2017-09-24T03:34:04.235Z,15.46
2017-09-24T03:35:04.253Z,15.47
2017-09-24T03:36:04.272Z,15.43
2017-09-24T03:37:04.291Z,15.29
2017-09-24T03:38:04.313Z,15.44
2017-09-24T03:39:04.332Z,15.57
2017-09-24T03:40:04.349Z,15.59
2017-09-24T03:41:04.368Z,15.72
2017-09-24T03:42:04.399Z,15.80
2017-09-24T03:43:04.409Z,15.82
2017-09-24T03:44:04.431Z,15.77
2017-09-24T03:45:04.450Z,15.84
2017-09-24T03:46:04.469Z,15.72
2017-09-24T03:47:04.490Z,15.46
2017-09-24T03:48:04.516Z,15.37
2017-09-24T03:49:04.531Z,15.24
2017-09-24T03:50:04.559Z,15.25
2017-09-24T03:51:04.571Z,15.42
2017-09-24T03:52:04.592Z,15.51
2017-09-24T03:53:04.617Z,15.37
2017-09-24T03:54:04.638Z,15.43
2017-09-24T03:55:04.650Z,15.43
2017-09-24T03:56:04.676Z,15.44
2017-09-24T03:57:04.693Z,15.44
2017-09-24T03:58:04.715Z,15.51
2017-09-24T03:59:04.738Z,15.52
2017-09-24T04:00:04.757Z,15.52
2017-09-24T04:01:04.775Z,15.59
2017-09-24T04:02:04.796Z,15.68
2017-09-24T04:03:04.816Z,15.70
2017-09-24T04:04:04.837Z,15.61
2017-09-24T04:05:04.857Z,15.46
2017-09-24T04:06:04.874Z,15.28
2017-09-24T04:07:04.899Z,15.21
2017-09-24T04:08:04.913Z,15.09
2017-09-24T04:09:04.932Z,15.07
2017-09-24T04:10:04.962Z,15.22
2017-09-24T04:11:04.981Z,15.42
2017-09-24T04:12:05.000Z,15.43
2017-09-24T04:13:05.016Z,15.52
2017-09-24T04:14:05.037Z,15.58
2017-09-24T04:15:05.058Z,15.47
2017-09-24T04:16:05.075Z,15.39
2017-09-24T04:17:05.097Z,15.25
2017-09-24T04:18:05.114Z,15.24
2017-09-24T04:19:05.138Z,15.31
2017-09-24T04:20:05.152Z,15.44
2017-09-24T04:21:05.175Z,15.46
2017-09-24T04:22:05.195Z,15.42
2017-09-24T04:23:05.218Z,15.43
2017-09-24T04:24:05.238Z,15.55
2017-09-24T04:25:05.255Z,15.49
2017-09-24T04:26:05.282Z,15.54
2017-09-24T04:27:05.297Z,15.52
2017-09-24T04:28:05.314Z,15.58
2017-09-24T04:29:05.337Z,15.59
2017-09-24T04:30:05.356Z,15.62
2017-09-24T04:31:05.374Z,15.59
2017-09-24T04:32:05.397Z,15.67
2017-09-24T04:33:05.419Z,15.68
2017-09-24T04:34:05.441Z,15.62
2017-09-24T04:35:05.477Z,15.57
2017-09-24T04:36:05.474Z,15.58
2017-09-24T04:37:05.498Z,15.55
2017-09-24T04:38:05.522Z,15.57
2017-09-24T04:39:05.553Z,15.70
2017-09-24T04:40:05.557Z,15.62
2017-09-24T04:41:05.612Z,15.68
2017-09-24T04:42:05.604Z,15.64
2017-09-24T04:43:05.622Z,15.76
2017-09-24T04:44:05.639Z,15.61
2017-09-24T04:45:05.662Z,15.47
2017-09-24T04:46:05.730Z,15.47
2017-09-24T04:47:05.787Z,15.44
2017-09-24T04:48:05.776Z,15.51
2017-09-24T04:49:05.751Z,15.43
2017-09-24T04:50:05.811Z,15.49
2017-09-24T04:51:05.785Z,15.52
2017-09-24T04:52:05.799Z,15.58
2017-09-24T04:53:05.845Z,15.52
2017-09-24T04:54:05.842Z,15.40
2017-09-24T04:55:05.981Z,15.47
2017-09-24T04:56:05.908Z,15.46
2017-09-24T04:57:05.909Z,15.37
2017-09-24T04:58:05.923Z,15.22
2017-09-24T04:59:06.041Z,15.21
2017-09-24T05:00:05.959Z,15.14
2017-09-24T05:01:05.988Z,15.02
2017-09-24T05:02:06.100Z,14.92
2017-09-24T05:03:06.040Z,14.84
2017-09-24T05:04:06.060Z,14.88
2017-09-24T05:05:06.152Z,14.86
2017-09-24T05:06:06.109Z,14.85
2017-09-24T05:07:06.107Z,14.82
2017-09-24T05:08:06.169Z,15.00
2017-09-24T05:09:06.154Z,15.02
2017-09-24T05:10:06.163Z,15.06
2017-09-24T05:11:06.193Z,14.99
2017-09-24T05:12:06.202Z,15.02
2017-09-24T05:13:06.263Z,14.97
2017-09-24T05:14:06.249Z,14.82
2017-09-24T05:15:06.265Z,14.84
2017-09-24T05:16:06.282Z,14.84
2017-09-24T05:17:06.330Z,15.00
2017-09-24T05:18:06.322Z,15.19
2017-09-24T05:19:06.341Z,15.17
2017-09-24T05:20:06.360Z,15.17
2017-09-24T05:21:06.392Z,15.11
2017-09-24T05:22:06.402Z,14.99
2017-09-24T05:23:06.439Z,14.97
2017-09-24T05:24:06.460Z,15.09
2017-09-24T05:25:06.477Z,14.89
2017-09-24T05:26:06.484Z,14.72
2017-09-24T05:27:06.503Z,14.59
2017-09-24T05:28:06.529Z,14.73
2017-09-24T05:29:06.548Z,15.00
2017-09-24T05:30:06.568Z,15.07
2017-09-24T05:31:06.581Z,15.22
2017-09-24T05:32:06.604Z,15.27
2017-09-24T05:33:06.634Z,15.39
2017-09-24T05:34:06.653Z,15.39
2017-09-24T05:35:06.665Z,15.42
2017-09-24T05:36:06.685Z,15.42
2017-09-24T05:37:06.704Z,15.49
2017-09-24T05:38:06.853Z,15.42
2017-09-24T05:39:06.761Z,15.18
2017-09-24T05:40:06.764Z,15.09
2017-09-24T05:41:06.809Z,15.15
2017-09-24T05:42:06.803Z,14.99
2017-09-24T05:43:06.819Z,15.00
2017-09-24T05:44:06.840Z,14.96
2017-09-24T05:45:06.864Z,15.10
2017-09-24T05:46:06.883Z,15.24
2017-09-24T05:47:06.905Z,15.36
2017-09-24T05:48:06.929Z,15.47
2017-09-24T05:49:06.945Z,15.62
2017-09-24T05:50:06.971Z,15.47
2017-09-24T05:51:06.981Z,15.58
2017-09-24T05:52:07.006Z,15.62
2017-09-24T05:53:07.023Z,15.64
2017-09-24T05:54:07.046Z,15.59
2017-09-24T05:55:07.065Z,15.67
2017-09-24T05:56:07.088Z,15.75
2017-09-24T05:57:07.102Z,15.68
2017-09-24T05:58:07.149Z,15.73
2017-09-24T05:59:07.146Z,15.76
2017-09-24T06:00:07.161Z,15.62
2017-09-24T06:01:07.183Z,15.70
2017-09-24T06:02:07.238Z,15.83
2017-09-24T06:03:07.230Z,15.83
2017-09-24T06:04:07.279Z,15.82
2017-09-24T06:05:07.275Z,15.83
2017-09-24T06:06:07.311Z,15.79
2017-09-24T06:07:07.318Z,15.83
2017-09-24T06:08:07.321Z,15.68
2017-09-24T06:09:07.342Z,15.59
2017-09-24T06:10:07.370Z,15.55
2017-09-24T06:11:07.389Z,15.44
2017-09-24T06:12:07.411Z,15.40
2017-09-24T06:13:07.427Z,15.29
2017-09-24T06:14:07.447Z,15.25
2017-09-24T06:15:07.476Z,15.46
2017-09-24T06:16:07.486Z,15.68
2017-09-24T06:17:07.505Z,15.82
2017-09-24T06:18:07.532Z,15.79
2017-09-24T06:19:07.553Z,15.65
2017-09-24T06:20:07.572Z,15.70
2017-09-24T06:21:07.590Z,15.73
2017-09-24T06:22:07.610Z,15.80
2017-09-24T06:23:07.627Z,15.92
2017-09-24T06:24:07.648Z,15.83
2017-09-24T06:25:07.677Z,15.68
2017-09-24T06:26:07.692Z,15.61
2017-09-24T06:27:07.720Z,15.54
2017-09-24T06:28:07.741Z,15.55
2017-09-24T06:29:07.759Z,15.54
2017-09-24T06:30:07.784Z,15.52
2017-09-24T06:31:07.828Z,15.46
2017-09-24T06:32:07.812Z,15.51
2017-09-24T06:33:07.834Z,15.47
2017-09-24T06:34:07.855Z,15.57
2017-09-24T06:35:07.886Z,15.54
2017-09-24T06:36:07.893Z,15.55
2017-09-24T06:37:07.914Z,15.79
2017-09-24T06:38:08.012Z,15.83
2017-09-24T06:39:07.961Z,15.92
2017-09-24T06:40:07.969Z,15.91
2017-09-24T06:41:07.996Z,15.88
2017-09-24T06:42:08.013Z,16.05
2017-09-24T06:43:08.033Z,16.33
2017-09-24T06:44:08.052Z,16.38
2017-09-24T06:45:08.082Z,16.49
2017-09-24T06:46:08.094Z,16.47
2017-09-24T06:47:08.115Z,16.57
2017-09-24T06:48:08.148Z,16.64
2017-09-24T06:49:08.163Z,16.64
2017-09-24T06:50:08.178Z,16.71
2017-09-24T06:51:08.198Z,16.74
2017-09-24T06:52:08.231Z,16.84
2017-09-24T06:53:08.243Z,16.86
2017-09-24T06:54:08.266Z,16.87
2017-09-24T06:55:08.280Z,16.65
2017-09-24T06:56:08.311Z,16.84
2017-09-24T06:57:08.336Z,17.01
2017-09-24T06:58:08.402Z,16.99
2017-09-24T06:59:08.361Z,17.12
2017-09-24T07:00:08.384Z,17.22
2017-09-24T07:01:08.401Z,17.34
2017-09-24T07:02:08.426Z,17.34
2017-09-24T07:03:08.448Z,17.30
2017-09-24T07:04:08.471Z,17.15
2017-09-24T07:05:08.489Z,17.01
2017-09-24T07:06:08.510Z,17.12
2017-09-24T07:07:08.534Z,17.16
2017-09-24T07:08:08.549Z,17.26
2017-09-24T07:09:08.568Z,17.39
2017-09-24T07:10:08.590Z,17.38
2017-09-24T07:11:08.609Z,17.29
2017-09-24T07:12:08.632Z,17.41
2017-09-24T07:13:08.659Z,17.24
2017-09-24T07:14:08.675Z,17.02
2017-09-24T07:15:08.704Z,17.15
2017-09-24T07:16:08.714Z,17.46
2017-09-24T07:17:08.736Z,17.67
2017-09-24T07:18:08.758Z,17.46
2017-09-24T07:19:08.789Z,17.39
2017-09-24T07:20:08.799Z,17.67
2017-09-24T07:21:08.826Z,17.79
2017-09-24T07:22:08.853Z,17.74
2017-09-24T07:23:08.867Z,17.68
2017-09-24T07:24:08.886Z,17.39
2017-09-24T07:25:08.904Z,17.24
2017-09-24T07:26:08.924Z,17.46
2017-09-24T07:27:08.958Z,17.46
2017-09-24T07:28:08.967Z,17.14
2017-09-24T07:29:09.000Z,17.39
2017-09-24T07:30:09.023Z,17.80
2017-09-24T07:31:09.030Z,18.00
2017-09-24T07:32:09.050Z,18.15
2017-09-24T07:33:09.077Z,17.98
2017-09-24T07:34:09.097Z,17.89
2017-09-24T07:35:09.112Z,17.83
2017-09-24T07:36:09.135Z,17.68
2017-09-24T07:37:09.169Z,17.95
2017-09-24T07:38:09.180Z,18.15
2017-09-24T07:39:09.212Z,18.26
2017-09-24T07:40:09.313Z,18.26
2017-09-24T07:41:09.260Z,18.03
2017-09-24T07:42:09.267Z,17.80
2017-09-24T07:43:09.288Z,18.03
2017-09-24T07:44:09.321Z,18.00
2017-09-24T07:45:09.333Z,18.44
2017-09-24T07:46:09.353Z,18.86
2017-09-24T07:47:10.071Z,19.11
2017-09-24T07:48:09.393Z,19.29
2017-09-24T07:49:09.417Z,19.73
2017-09-24T07:50:09.440Z,20.39
2017-09-24T07:51:09.467Z,20.69
2017-09-24T07:52:09.588Z,20.51
2017-09-24T07:53:09.569Z,20.66
2017-09-24T07:54:09.629Z,20.29
2017-09-24T07:55:09.662Z,20.26
2017-09-24T07:56:09.683Z,20.56
2017-09-24T07:57:09.623Z,20.95
2017-09-24T07:58:09.714Z,21.15
2017-09-24T07:59:09.652Z,21.15
2017-09-24T08:00:09.770Z,20.96
2017-09-24T08:01:09.768Z,21.15
2017-09-24T08:02:09.848Z,20.70
2017-09-24T08:03:09.762Z,20.22
2017-09-24T08:04:09.859Z,20.19
2017-09-24T08:05:09.882Z,19.81
2017-09-24T08:06:09.913Z,19.81
2017-09-24T08:07:09.929Z,20.11
2017-09-24T08:08:14.672Z,20.36
2017-09-24T08:12:13.871Z,23.73
2017-09-24T08:13:14.883Z,24.24
2017-09-24T08:19:44.446Z,20.80
2017-09-24T08:20:46.442Z,21.00
2017-09-24T08:22:37.411Z,20.93
2017-09-24T08:23:38.408Z,20.62
2017-09-24T08:25:30.003Z,21.58
2017-09-24T08:29:18.152Z,21.91
2017-09-24T08:42:14.430Z,19.04
2017-09-24T08:44:43.915Z,19.21
2017-09-24T08:45:27.420Z,19.36
2017-09-24T08:47:35.885Z,19.89
2017-09-24T08:48:21.469Z,20.43
2017-09-24T08:50:14.754Z,20.70
2017-09-24T08:51:14.438Z,20.14
2017-09-24T09:08:52.123Z,19.31
2017-09-24T09:10:24.100Z,18.99
2017-09-24T09:12:37.175Z,19.64
2017-09-24T09:13:37.295Z,19.54
2017-09-24T09:15:30.275Z,19.30
2017-09-24T09:16:30.157Z,19.48
2017-09-24T09:18:23.245Z,20.29
2017-09-24T09:19:23.724Z,20.02
2017-09-24T09:21:18.696Z,19.58
2017-09-24T09:22:17.090Z,19.71
2017-09-24T09:24:10.061Z,19.95
2017-09-24T09:25:10.645Z,20.36
2017-09-24T09:27:03.114Z,19.64
2017-09-24T09:28:03.028Z,19.94
2017-09-24T09:29:58.109Z,19.84
2017-09-24T09:30:56.096Z,19.84
2017-09-24T09:32:49.557Z,18.96
2017-09-24T09:33:50.477Z,19.12
2017-09-24T09:35:43.014Z,19.27
2017-09-24T09:36:42.516Z,19.76
2017-09-24T09:38:34.902Z,20.34
2017-09-24T09:40:48.439Z,20.60
2017-09-24T09:41:47.940Z,20.29
2017-09-24T09:43:40.923Z,19.84
2017-09-24T09:44:40.810Z,19.88
2017-09-24T09:46:33.743Z,19.70
2017-09-24T09:50:36.682Z,20.39
2017-09-24T09:51:19.206Z,20.59
2017-09-24T09:53:12.167Z,20.93
2017-09-24T09:54:13.296Z,21.07
2017-09-24T09:56:06.182Z,20.92
2017-09-24T09:57:06.661Z,20.72
2017-09-24T09:59:12.632Z,20.67
2017-09-24T09:59:58.125Z,20.51
2017-09-24T10:01:51.317Z,19.52
2017-09-24T10:04:04.026Z,19.27
2017-09-24T10:06:18.915Z,19.11
2017-09-24T10:08:31.492Z,19.00
2017-09-24T10:09:30.986Z,19.26
2017-09-24T19:40:56.368Z,17.57
2017-09-24T19:41:56.279Z,17.44
2017-09-24T19:43:49.333Z,17.42
2017-09-24T19:44:49.301Z,17.30
2017-09-24T19:46:42.352Z,17.24
2017-09-24T19:47:42.352Z,17.30
2017-09-24T19:49:35.419Z,17.19
2017-09-24T19:50:35.420Z,17.02
2017-09-24T19:52:28.484Z,17.15
2017-09-24T19:53:28.578Z,17.14
2017-09-24T19:55:21.540Z,16.90
2017-09-24T19:56:21.501Z,16.99
2017-09-24T19:58:14.553Z,16.90
2017-09-24T19:59:14.524Z,16.79
2017-09-24T20:01:09.258Z,16.64
2017-09-24T20:02:09.281Z,16.50
2017-09-24T20:04:03.322Z,16.71
2017-09-24T20:05:03.408Z,16.65
2017-09-24T20:06:56.447Z,16.65
2017-09-24T20:07:56.330Z,16.66
2017-09-24T20:09:49.910Z,16.43
2017-09-24T20:10:49.989Z,16.50
2017-09-24T20:12:42.892Z,16.47
2017-09-24T20:13:42.908Z,16.58
2017-09-24T20:15:35.977Z,16.68
2017-09-24T20:16:35.955Z,16.81
2017-09-24T20:18:28.973Z,16.68
2017-09-24T20:19:28.981Z,16.69
2017-09-24T20:21:22.582Z,16.66
2017-09-24T20:22:22.574Z,16.66
2017-09-24T20:24:15.591Z,16.42
2017-09-24T20:25:15.603Z,16.47
2017-09-24T20:27:08.663Z,16.42
2017-09-24T20:28:08.651Z,16.17
2017-09-24T20:30:01.722Z,16.21
2017-09-24T20:31:01.672Z,16.10
2017-09-24T20:32:54.736Z,15.92
2017-09-24T20:33:54.821Z,15.95
2017-09-24T20:35:59.666Z,16.32
2017-09-24T20:36:59.639Z,16.29
2017-09-24T20:38:52.680Z,16.32
2017-09-24T20:39:52.673Z,16.15
2017-09-24T20:41:45.730Z,16.29
2017-09-24T20:42:45.724Z,16.38
2017-09-24T20:44:38.736Z,16.46
2017-09-24T20:45:38.754Z,16.42
2017-09-24T20:47:31.799Z,16.66
2017-09-24T20:48:31.798Z,16.60
2017-09-24T20:50:24.835Z,16.76
2017-09-24T20:51:24.833Z,16.72
2017-09-24T20:53:17.899Z,16.74
2017-09-24T20:54:17.870Z,16.78
2017-09-24T20:56:11.062Z,16.76
2017-09-24T20:57:10.897Z,16.90
2017-09-24T20:59:03.921Z,16.75
2017-09-24T21:00:03.945Z,16.86
2017-09-24T21:01:57.033Z,16.99
2017-09-24T21:02:56.982Z,16.97
2017-09-24T21:04:50.030Z,16.84
2017-09-24T21:05:50.011Z,16.84
2017-09-24T21:07:44.061Z,16.90
2017-09-24T21:08:44.041Z,16.99
2017-09-24T21:10:37.082Z,17.06
2017-09-24T21:11:37.069Z,16.96
2017-09-24T21:13:30.110Z,16.86
2017-09-24T21:14:30.103Z,16.90
2017-09-24T21:16:23.162Z,16.83
2017-09-24T21:17:23.148Z,16.89
2017-09-24T21:19:16.204Z,16.79
2017-09-24T21:20:16.190Z,16.84
2017-09-24T21:22:09.208Z,16.83
2017-09-24T21:23:09.224Z,16.69
2017-09-24T21:25:02.285Z,16.69
2017-09-24T21:26:02.292Z,16.51
2017-09-24T21:27:55.280Z,16.46
2017-09-24T21:28:55.285Z,16.68
2017-09-24T21:30:48.351Z,16.64
2017-09-24T21:31:48.331Z,16.78
2017-09-24T21:33:41.368Z,16.61
2017-09-24T21:34:41.354Z,16.39
2017-09-24T21:36:34.389Z,16.57
2017-09-24T21:37:34.394Z,16.66
2017-09-24T21:39:27.480Z,16.81
2017-09-24T21:40:27.445Z,16.71
2017-09-24T21:42:20.945Z,16.65
2017-09-24T21:43:20.972Z,16.60
2017-09-24T21:45:14.026Z,16.58
2017-09-24T21:46:14.006Z,16.72
2017-09-24T21:48:07.025Z,16.86
2017-09-24T21:49:07.079Z,16.79
2017-09-24T21:51:00.129Z,16.87
2017-09-24T21:52:00.087Z,16.76
2017-09-24T21:53:53.108Z,16.83
2017-09-24T21:54:53.118Z,16.87
2017-09-24T21:56:46.200Z,16.57
2017-09-24T21:57:46.153Z,16.66
2017-09-24T21:59:40.168Z,16.89
2017-09-24T22:00:40.180Z,16.81
2017-09-24T22:02:33.242Z,16.68
2017-09-24T22:03:33.214Z,16.68
2017-09-24T22:05:26.396Z,16.57
2017-09-24T22:06:26.260Z,16.58
2017-09-24T22:08:31.692Z,16.38
2017-09-24T22:09:31.714Z,16.33
2017-09-24T22:11:24.773Z,16.33
2017-09-24T22:12:24.736Z,16.41
2017-09-24T22:14:17.777Z,16.38
2017-09-24T22:15:17.792Z,16.21
2017-09-24T22:17:10.882Z,16.43
2017-09-24T22:18:10.819Z,16.49
2017-09-24T22:20:04.357Z,16.68
2017-09-24T22:21:04.375Z,16.76
2017-09-24T22:22:57.450Z,16.66
2017-09-24T22:23:57.401Z,16.64
2017-09-24T22:25:50.425Z,16.72
2017-09-24T22:26:50.462Z,16.79
2017-09-24T22:28:43.486Z,16.86
2017-09-24T22:29:43.473Z,16.81
2017-09-24T22:31:36.541Z,16.72
2017-09-24T22:32:36.517Z,16.56
2017-09-24T22:34:29.543Z,16.66
2017-09-24T22:35:29.579Z,16.75
2017-09-24T22:37:22.627Z,16.87
2017-09-24T22:38:22.582Z,16.76
2017-09-24T22:40:15.644Z,16.65
2017-09-24T22:41:15.633Z,16.74
2017-09-24T22:43:09.352Z,16.84
2017-09-24T22:44:09.209Z,16.96
2017-09-24T22:46:02.198Z,16.81
2017-09-24T22:47:02.219Z,16.90
2017-09-24T22:48:55.292Z,16.61
2017-09-24T22:49:55.279Z,16.78
2017-09-24T22:51:48.280Z,16.81
2017-09-24T22:52:48.295Z,16.81
2017-09-24T22:54:41.348Z,16.84
2017-09-24T22:55:41.345Z,16.69
2017-09-24T22:57:34.359Z,16.86
2017-09-24T22:58:34.379Z,16.86
2017-09-24T23:00:27.426Z,16.81
2017-09-24T23:01:27.415Z,16.78
2017-09-24T23:03:20.490Z,16.79
2017-09-24T23:04:20.452Z,16.86
2017-09-24T23:06:13.485Z,16.79
2017-09-24T23:07:13.492Z,16.72
2017-09-24T23:09:06.552Z,16.96
2017-09-24T23:10:06.534Z,16.72
2017-09-24T23:11:59.564Z,16.79
2017-09-24T23:12:59.584Z,17.01
2017-09-24T23:15:04.494Z,17.02
2017-09-24T23:16:04.476Z,17.02
2017-09-24T23:17:58.503Z,16.96
2017-09-24T23:18:58.495Z,16.99
2017-09-24T23:20:51.588Z,16.84
2017-09-24T23:21:51.543Z,16.86
2017-09-24T23:23:44.548Z,16.81
2017-09-24T23:24:44.588Z,16.91
2017-09-24T23:26:37.638Z,16.71
2017-09-24T23:27:37.609Z,16.75
2017-09-24T23:29:30.642Z,16.94
2017-09-24T23:30:30.651Z,16.99
2017-09-24T23:32:23.702Z,16.83
2017-09-24T23:33:23.684Z,16.47
2017-09-24T23:35:16.885Z,16.50
2017-09-24T23:36:16.726Z,16.61
2017-09-24T23:38:09.757Z,16.60
2017-09-24T23:39:09.765Z,16.64
2017-09-24T23:41:02.846Z,16.94
2017-09-24T23:42:02.785Z,16.91
2017-09-24T23:43:55.823Z,16.96
2017-09-24T23:44:55.829Z,16.90
2017-09-24T23:46:48.879Z,16.86
2017-09-24T23:47:48.860Z,16.91
2017-09-24T23:49:41.895Z,16.91
2017-09-24T23:50:41.904Z,16.84
2017-09-24T23:52:47.312Z,16.76
2017-09-24T23:53:47.282Z,16.64
2017-09-24T23:55:41.303Z,16.75
2017-09-24T23:56:41.329Z,16.84
2017-09-24T23:58:34.405Z,16.96
2017-09-24T23:59:34.396Z,16.76
